Time;durP1;ratioP1;P1;durP2;ratioP2;P2;SDS_P1;SDS_P2;PMS_P1;PMS_P2;Temp;Humidity;BMP_temperature;BMP_pressure;BME280_temperature;BME280_humidity;BME280_pressure;Samples;Min_cycle;Max_cycle;Signal;HPM_P1;HPM_P2
2022/11/03 08:40:35;;;;;;;9.82;3.35;;;;;;;10.51;76.68;96385.06;2096503;27;20553;-67
2022/11/03 08:41:41;;;;;;;10.02;3.72;;;;;;;10.56;75.61;96372.66;2088512;28;20269;-67
2022/11/03 08:48:27;;;;;;;7.00;3.26;;;;;;;10.76;76.69;96389.09;4205396;27;1597584;-68
2022/11/03 08:49:29;;;;;;;19.02;3.58;;;;;;;11.26;74.86;96384.84;2114779;28;20222;-67
2022/11/03 08:50:30;;;;;;;11.50;3.85;;;;;;;11.50;73.56;96376.66;2111366;28;20213;-68
2022/11/03 08:51:32;;;;;;;14.57;4.18;;;;;;;11.88;72.15;96376.38;2098843;28;20231;-67
2022/11/03 08:52:33;;;;;;;9.30;3.63;;;;;;;11.84;72.15;96385.31;2097509;28;20205;-67
2022/11/03 08:53:35;;;;;;;11.45;3.35;;;;;;;11.43;72.61;96369.13;2097468;28;20195;-68
2022/11/03 08:54:36;;;;;;;12.73;3.20;;;;;;;11.43;72.95;96374.34;2099707;28;20231;-67
2022/11/03 08:55:37;;;;;;;20.05;3.75;;;;;;;11.57;72.63;96371.00;2098369;28;20688;-68
2022/11/03 08:56:39;;;;;;;15.80;4.22;;;;;;;11.25;73.77;96339.56;2098550;28;20606;-67
2022/11/03 08:57:40;;;;;;;12.25;4.22;;;;;;;11.20;73.69;96333.75;2101004;28;20266;-67
2022/11/03 08:58:43;;;;;;;11.65;3.83;;;;;;;11.41;74.10;96376.22;2098404;28;20850;-68
2022/11/03 08:59:44;;;;;;;12.60;4.20;;;;;;;11.17;74.32;96367.03;2098181;28;20246;-67
2022/11/03 09:00:47;;;;;;;9.82;3.45;;;;;;;11.31;74.56;96379.38;2097865;28;20262;-67
2022/11/03 09:01:49;;;;;;;11.57;3.17;;;;;;;11.70;73.71;96367.75;2099469;28;20277;-67
2022/11/03 09:02:51;;;;;;;7.82;3.97;;;;;;;11.91;72.54;96374.44;2097550;28;20668;-68
2022/11/03 09:03:52;;;;;;;10.80;3.78;;;;;;;11.80;72.02;96363.72;2096823;28;20284;-68
2022/11/03 09:04:54;;;;;;;10.95;3.70;;;;;;;12.02;71.23;96366.03;2097821;28;20196;-67
2022/11/03 09:11:04;;;;;;;10.50;4.60;;;;;;;12.46;70.31;96363.66;2089171;28;20260;-68
2022/11/03 09:12:05;;;;;;;6.18;3.40;;;;;;;12.66;70.15;96371.22;2088977;28;20240;-69
2022/11/03 09:13:07;;;;;;;12.95;4.30;;;;;;;12.31;70.43;96345.25;2090492;28;20288;-68
2022/11/03 09:14:08;;;;;;;8.73;3.72;;;;;;;12.18;71.64;96360.78;2088982;28;20201;-68
2022/11/03 09:15:10;;;;;;;10.95;5.20;;;;;;;12.32;71.51;96372.28;2091680;28;20283;-68
2022/11/03 09:16:12;;;;;;;10.27;4.13;;;;;;;12.43;71.43;96354.19;2088853;28;20307;-68
2022/11/03 09:17:13;;;;;;;12.82;3.50;;;;;;;12.56;71.30;96349.94;2081771;28;20231;-68
2022/11/03 09:18:15;;;;;;;8.32;4.18;;;;;;;12.87;70.13;96358.66;2087970;28;20246;-68
2022/11/03 09:19:16;;;;;;;16.45;3.90;;;;;;;13.18;68.74;96356.81;2091936;28;20664;-68
2022/11/03 09:20:17;;;;;;;15.02;3.25;;;;;;;13.25;68.15;96353.84;2089767;28;20241;-68
2022/11/03 09:21:19;;;;;;;9.93;3.75;;;;;;;13.19;67.80;96337.53;2090381;28;20317;-68
2022/11/03 09:22:21;;;;;;;8.82;4.00;;;;;;;13.26;68.66;96351.13;2089817;28;20243;-69
2022/11/03 09:23:22;;;;;;;9.52;4.05;;;;;;;13.34;67.79;96356.72;2087469;28;20207;-68
2022/11/03 09:24:24;;;;;;;10.60;4.00;;;;;;;13.20;68.01;96336.63;2089075;28;20716;-68
2022/11/03 09:25:30;;;;;;;11.60;4.35;;;;;;;13.50;68.18;96348.81;2088777;28;20695;-68
2022/11/03 09:26:31;;;;;;;9.75;3.90;;;;;;;13.15;68.42;96346.50;2088842;28;20200;-68
2022/11/03 09:27:33;;;;;;;14.73;4.60;;;;;;;12.95;69.16;96336.38;2089840;28;20310;-68
2022/11/03 09:28:34;;;;;;;6.65;3.35;;;;;;;12.93;69.62;96341.72;2090750;28;20666;-68
2022/11/03 09:47:46;;;;;;;9.40;4.00;;;;;;;10.93;76.68;96322.94;2091162;28;20646;-69
2022/11/03 09:48:47;;;;;;;9.48;4.10;;;;;;;10.87;77.55;96320.63;2089452;28;20248;-69
2022/11/03 09:49:49;;;;;;;9.82;4.28;;;;;;;10.92;77.61;96318.66;2088923;28;20275;-70
2022/11/03 09:50:53;;;;;;;19.05;6.05;;;;;;;11.00;77.27;96316.47;2088734;28;20271;-69
2022/11/03 09:51:54;;;;;;;14.70;5.15;;;;;;;10.97;77.96;96321.00;2088048;28;20289;-69
2022/11/03 09:52:59;;;;;;;10.68;4.20;;;;;;;10.67;77.47;96288.56;2088131;28;20594;-70
2022/11/03 09:54:03;;;;;;;15.20;5.65;;;;;;;10.86;78.15;96322.41;2088739;28;20213;-69
2022/11/03 09:55:14;;;;;;;11.07;4.63;;;;;;;10.68;78.56;96332.03;2088704;28;20755;-69
2022/11/03 09:56:18;;;;;;;9.60;4.97;;;;;;;10.66;77.97;96301.69;2090447;28;20302;-69
2022/11/03 09:57:19;;;;;;;15.88;4.47;;;;;;;10.66;78.31;96297.28;2090351;28;20279;-69
2022/11/03 09:58:21;;;;;;;9.25;4.35;;;;;;;10.72;77.88;96315.28;2086591;28;20287;-69
2022/11/03 09:59:22;;;;;;;17.25;5.20;;;;;;;10.79;78.05;96318.41;2083990;28;20241;-69
